sensor_id;sensor_type;location;lat;lon;timestamp;temperature;humidity
42489;DHT22;28118;52.388;9.452;2022-12-29T00:01:41;9.20;99.90
42489;DHT22;28118;52.388;9.452;2022-12-29T00:04:11;9.30;99.90
42489;DHT22;28118;52.388;9.452;2022-12-29T00:06:42;9.30;99.90
42489;DHT22;28118;52.388;9.452;2022-12-29T00:09:11;9.30;99.90
42489;DHT22;28118;52.388;9.452;2022-12-29T00:11:38;9.30;99.90
42489;DHT22;28118;52.388;9.452;2022-12-29T00:14:05;9.40;99.90
42489;DHT22;28118;52.388;9.452;2022-12-29T00:16:51;9.40;99.90
42489;DHT22;28118;52.388;9.452;2022-12-29T00:19:18;9.40;99.90
42489;DHT22;28118;52.388;9.452;2022-12-29T00:22:04;9.40;99.90
42489;DHT22;28118;52.388;9.452;2022-12-29T00:24:49;9.50;99.90
42489;DHT22;28118;52.388;9.452;2022-12-29T00:27:35;9.50;99.90
42489;DHT22;28118;52.388;9.452;2022-12-29T00:30:21;9.50;99.90
42489;DHT22;28118;52.388;9.452;2022-12-29T00:33:12;9.60;99.90
42489;DHT22;28118;52.388;9.452;2022-12-29T00:36:05;9.60;99.90
42489;DHT22;28118;52.388;9.452;2022-12-29T00:38:36;9.60;99.90
42489;DHT22;28118;52.388;9.452;2022-12-29T00:41:21;9.70;99.90
42489;DHT22;28118;52.388;9.452;2022-12-29T00:44:08;9.70;99.90
42489;DHT22;28118;52.388;9.452;2022-12-29T00:46:37;9.80;99.90
42489;DHT22;28118;52.388;9.452;2022-12-29T00:49:05;9.90;99.90
42489;DHT22;28118;52.388;9.452;2022-12-29T00:51:52;9.90;99.90
42489;DHT22;28118;52.388;9.452;2022-12-29T00:54:19;10.00;99.90
42489;DHT22;28118;52.388;9.452;2022-12-29T00:56:47;10.10;99.90
42489;DHT22;28118;52.388;9.452;2022-12-29T00:59:14;10.20;99.90
42489;DHT22;28118;52.388;9.452;2022-12-29T01:01:41;10.20;99.90
42489;DHT22;28118;52.388;9.452;2022-12-29T01:04:08;10.30;99.90
42489;DHT22;28118;52.388;9.452;2022-12-29T01:06:37;10.30;99.90
42489;DHT22;28118;52.388;9.452;2022-12-29T01:09:05;10.30;99.90
42489;DHT22;28118;52.388;9.452;2022-12-29T01:11:51;10.30;99.90
42489;DHT22;28118;52.388;9.452;2022-12-29T01:14:18;10.30;99.90
42489;DHT22;28118;52.388;9.452;2022-12-29T01:16:46;10.30;99.90
42489;DHT22;28118;52.388;9.452;2022-12-29T01:19:14;10.40;99.90
42489;DHT22;28118;52.388;9.452;2022-12-29T01:21:41;10.40;99.90
42489;DHT22;28118;52.388;9.452;2022-12-29T01:24:08;10.40;99.90
42489;DHT22;28118;52.388;9.452;2022-12-29T01:26:34;10.40;99.90
42489;DHT22;28118;52.388;9.452;2022-12-29T01:29:01;10.40;99.90
42489;DHT22;28118;52.388;9.452;2022-12-29T01:31:28;10.40;99.90
42489;DHT22;28118;52.388;9.452;2022-12-29T01:33:54;10.40;99.90
42489;DHT22;28118;52.388;9.452;2022-12-29T01:36:21;10.40;99.90
42489;DHT22;28118;52.388;9.452;2022-12-29T01:38:48;10.40;99.90
42489;DHT22;28118;52.388;9.452;2022-12-29T01:41:15;10.40;99.90
42489;DHT22;28118;52.388;9.452;2022-12-29T01:43:50;10.40;99.90
42489;DHT22;28118;52.388;9.452;2022-12-29T01:46:28;10.40;99.90
42489;DHT22;28118;52.388;9.452;2022-12-29T01:51:31;10.40;99.90
42489;DHT22;28118;52.388;9.452;2022-12-29T01:54:02;10.50;99.90
42489;DHT22;28118;52.388;9.452;2022-12-29T01:56:31;10.40;99.90
42489;DHT22;28118;52.388;9.452;2022-12-29T01:59:05;10.30;99.90
42489;DHT22;28118;52.388;9.452;2022-12-29T02:01:33;10.30;99.90
42489;DHT22;28118;52.388;9.452;2022-12-29T02:04:00;10.30;99.90
42489;DHT22;28118;52.388;9.452;2022-12-29T02:06:31;10.30;99.90
42489;DHT22;28118;52.388;9.452;2022-12-29T02:08:58;10.30;99.90
42489;DHT22;28118;52.388;9.452;2022-12-29T02:11:26;10.30;99.90
42489;DHT22;28118;52.388;9.452;2022-12-29T02:13:56;10.30;99.90
42489;DHT22;28118;52.388;9.452;2022-12-29T02:16:36;10.30;99.90
42489;DHT22;28118;52.388;9.452;2022-12-29T02:28:08;10.50;99.90
42489;DHT22;28118;52.388;9.452;2022-12-29T02:31:00;10.50;99.90
42489;DHT22;28118;52.388;9.452;2022-12-29T02:33:37;10.50;99.90
42489;DHT22;28118;52.388;9.452;2022-12-29T02:36:15;10.50;99.90
42489;DHT22;28118;52.388;9.452;2022-12-29T02:38:59;10.50;99.90
42489;DHT22;28118;52.388;9.452;2022-12-29T02:41:37;10.50;99.90
42489;DHT22;28118;52.388;9.452;2022-12-29T02:46:54;10.50;99.90
42489;DHT22;28118;52.388;9.452;2022-12-29T02:49:38;10.50;99.90
42489;DHT22;28118;52.388;9.452;2022-12-29T02:52:19;10.50;99.90
42489;DHT22;28118;52.388;9.452;2022-12-29T02:54:49;10.50;99.90
42489;DHT22;28118;52.388;9.452;2022-12-29T03:00:04;10.50;99.90
42489;DHT22;28118;52.388;9.452;2022-12-29T03:03:16;10.60;99.90
42489;DHT22;28118;52.388;9.452;2022-12-29T03:08:34;10.50;99.90
42489;DHT22;28118;52.388;9.452;2022-12-29T03:13:45;10.40;99.90
42489;DHT22;28118;52.388;9.452;2022-12-29T03:16:39;10.30;99.90
42489;DHT22;28118;52.388;9.452;2022-12-29T03:21:48;10.20;99.90
42489;DHT22;28118;52.388;9.452;2022-12-29T03:24:38;10.10;99.90
42489;DHT22;28118;52.388;9.452;2022-12-29T03:27:07;10.10;99.90
42489;DHT22;28118;52.388;9.452;2022-12-29T03:29:39;10.10;99.90
42489;DHT22;28118;52.388;9.452;2022-12-29T03:32:08;10.20;99.90
42489;DHT22;28118;52.388;9.452;2022-12-29T03:34:36;10.20;99.90
42489;DHT22;28118;52.388;9.452;2022-12-29T03:37:11;10.20;99.90
42489;DHT22;28118;52.388;9.452;2022-12-29T03:39:41;10.30;99.90
42489;DHT22;28118;52.388;9.452;2022-12-29T03:42:20;10.30;99.90
42489;DHT22;28118;52.388;9.452;2022-12-29T03:44:47;10.30;99.90
42489;DHT22;28118;52.388;9.452;2022-12-29T03:47:15;10.30;99.90
42489;DHT22;28118;52.388;9.452;2022-12-29T03:49:42;10.30;99.90
42489;DHT22;28118;52.388;9.452;2022-12-29T03:52:09;10.30;99.90
42489;DHT22;28118;52.388;9.452;2022-12-29T03:54:36;10.30;99.90
42489;DHT22;28118;52.388;9.452;2022-12-29T03:57:02;10.40;99.90
42489;DHT22;28118;52.388;9.452;2022-12-29T03:59:29;10.40;99.90
42489;DHT22;28118;52.388;9.452;2022-12-29T04:01:55;10.40;99.90
42489;DHT22;28118;52.388;9.452;2022-12-29T04:04:22;10.40;99.90
42489;DHT22;28118;52.388;9.452;2022-12-29T04:06:49;10.50;99.90
42489;DHT22;28118;52.388;9.452;2022-12-29T04:09:16;10.50;99.90
42489;DHT22;28118;52.388;9.452;2022-12-29T04:11:43;10.50;99.90
42489;DHT22;28118;52.388;9.452;2022-12-29T04:14:09;10.50;99.90
42489;DHT22;28118;52.388;9.452;2022-12-29T04:16:36;10.40;99.90
42489;DHT22;28118;52.388;9.452;2022-12-29T04:19:06;10.50;99.90
42489;DHT22;28118;52.388;9.452;2022-12-29T04:21:34;10.50;99.90
42489;DHT22;28118;52.388;9.452;2022-12-29T04:24:00;10.50;99.90
42489;DHT22;28118;52.388;9.452;2022-12-29T04:26:27;10.50;99.90
42489;DHT22;28118;52.388;9.452;2022-12-29T04:28:54;10.60;99.90
42489;DHT22;28118;52.388;9.452;2022-12-29T04:31:20;10.70;99.90
42489;DHT22;28118;52.388;9.452;2022-12-29T04:33:47;10.70;99.90
42489;DHT22;28118;52.388;9.452;2022-12-29T04:36:14;10.70;99.90
42489;DHT22;28118;52.388;9.452;2022-12-29T04:38:40;10.80;99.90
42489;DHT22;28118;52.388;9.452;2022-12-29T04:41:07;10.80;99.90
42489;DHT22;28118;52.388;9.452;2022-12-29T04:43:34;10.90;99.90
42489;DHT22;28118;52.388;9.452;2022-12-29T04:46:00;10.90;99.90
42489;DHT22;28118;52.388;9.452;2022-12-29T04:48:27;11.00;99.90
42489;DHT22;28118;52.388;9.452;2022-12-29T04:50:54;11.00;99.90
42489;DHT22;28118;52.388;9.452;2022-12-29T04:53:20;11.10;99.90
42489;DHT22;28118;52.388;9.452;2022-12-29T04:55:51;11.30;99.90
42489;DHT22;28118;52.388;9.452;2022-12-29T04:58:19;11.40;99.90
42489;DHT22;28118;52.388;9.452;2022-12-29T05:00:49;11.50;99.90
42489;DHT22;28118;52.388;9.452;2022-12-29T05:03:16;11.50;99.90
42489;DHT22;28118;52.388;9.452;2022-12-29T05:05:43;11.50;99.90
42489;DHT22;28118;52.388;9.452;2022-12-29T05:08:10;11.50;99.90
42489;DHT22;28118;52.388;9.452;2022-12-29T05:10:37;11.70;99.90
42489;DHT22;28118;52.388;9.452;2022-12-29T05:13:04;11.70;99.90
42489;DHT22;28118;52.388;9.452;2022-12-29T05:15:30;11.60;99.90
42489;DHT22;28118;52.388;9.452;2022-12-29T05:17:57;11.60;99.90
42489;DHT22;28118;52.388;9.452;2022-12-29T05:20:24;11.70;99.90
42489;DHT22;28118;52.388;9.452;2022-12-29T05:22:50;11.70;99.90
42489;DHT22;28118;52.388;9.452;2022-12-29T05:25:17;11.60;99.90
42489;DHT22;28118;52.388;9.452;2022-12-29T05:27:44;11.60;99.90
42489;DHT22;28118;52.388;9.452;2022-12-29T05:30:11;11.50;99.90
42489;DHT22;28118;52.388;9.452;2022-12-29T05:32:37;11.50;99.90
42489;DHT22;28118;52.388;9.452;2022-12-29T05:35:05;11.50;99.90
42489;DHT22;28118;52.388;9.452;2022-12-29T05:37:33;11.40;99.90
42489;DHT22;28118;52.388;9.452;2022-12-29T05:39:59;11.30;99.90
42489;DHT22;28118;52.388;9.452;2022-12-29T05:42:26;11.10;99.90
42489;DHT22;28118;52.388;9.452;2022-12-29T05:44:52;11.00;99.90
42489;DHT22;28118;52.388;9.452;2022-12-29T05:47:20;10.90;99.90
42489;DHT22;28118;52.388;9.452;2022-12-29T05:49:47;10.80;99.90
42489;DHT22;28118;52.388;9.452;2022-12-29T05:52:13;10.70;99.90
42489;DHT22;28118;52.388;9.452;2022-12-29T05:54:40;10.70;99.90
42489;DHT22;28118;52.388;9.452;2022-12-29T05:57:06;10.60;99.90
42489;DHT22;28118;52.388;9.452;2022-12-29T05:59:33;10.60;99.90
42489;DHT22;28118;52.388;9.452;2022-12-29T06:02:00;10.60;99.90
42489;DHT22;28118;52.388;9.452;2022-12-29T06:04:27;10.50;99.90
42489;DHT22;28118;52.388;9.452;2022-12-29T06:06:53;10.50;99.90
42489;DHT22;28118;52.388;9.452;2022-12-29T06:09:20;10.50;99.90
42489;DHT22;28118;52.388;9.452;2022-12-29T06:11:47;10.50;99.90
42489;DHT22;28118;52.388;9.452;2022-12-29T06:14:13;10.40;99.90
42489;DHT22;28118;52.388;9.452;2022-12-29T06:16:40;10.40;99.90
42489;DHT22;28118;52.388;9.452;2022-12-29T06:19:08;10.40;99.90
42489;DHT22;28118;52.388;9.452;2022-12-29T06:21:34;10.40;99.90
42489;DHT22;28118;52.388;9.452;2022-12-29T06:24:01;10.40;99.90
42489;DHT22;28118;52.388;9.452;2022-12-29T06:26:28;10.40;99.90
42489;DHT22;28118;52.388;9.452;2022-12-29T06:28:54;10.40;99.90
42489;DHT22;28118;52.388;9.452;2022-12-29T06:31:21;10.50;99.90
42489;DHT22;28118;52.388;9.452;2022-12-29T06:33:48;10.50;99.90
42489;DHT22;28118;52.388;9.452;2022-12-29T06:36:15;10.60;99.90
42489;DHT22;28118;52.388;9.452;2022-12-29T06:38:42;10.60;99.90
42489;DHT22;28118;52.388;9.452;2022-12-29T06:41:09;10.70;99.90
42489;DHT22;28118;52.388;9.452;2022-12-29T06:43:36;10.70;99.90
42489;DHT22;28118;52.388;9.452;2022-12-29T06:46:05;10.70;99.90
42489;DHT22;28118;52.388;9.452;2022-12-29T06:48:32;10.80;99.90
42489;DHT22;28118;52.388;9.452;2022-12-29T06:50:58;10.80;99.90
42489;DHT22;28118;52.388;9.452;2022-12-29T06:53:25;10.90;99.90
42489;DHT22;28118;52.388;9.452;2022-12-29T06:55:52;10.90;99.90
42489;DHT22;28118;52.388;9.452;2022-12-29T06:58:19;11.00;99.90
42489;DHT22;28118;52.388;9.452;2022-12-29T07:00:45;11.00;99.90
42489;DHT22;28118;52.388;9.452;2022-12-29T07:03:12;10.10;99.90
42489;DHT22;28118;52.388;9.452;2022-12-29T07:05:39;9.10;99.90
42489;DHT22;28118;52.388;9.452;2022-12-29T07:08:06;8.90;99.90
42489;DHT22;28118;52.388;9.452;2022-12-29T07:10:32;8.90;99.90
42489;DHT22;28118;52.388;9.452;2022-12-29T07:12:59;9.10;99.90
42489;DHT22;28118;52.388;9.452;2022-12-29T07:15:26;9.10;99.90
42489;DHT22;28118;52.388;9.452;2022-12-29T07:17:52;9.20;99.90
42489;DHT22;28118;52.388;9.452;2022-12-29T07:20:19;9.30;99.90
42489;DHT22;28118;52.388;9.452;2022-12-29T07:22:52;9.50;99.90
42489;DHT22;28118;52.388;9.452;2022-12-29T07:25:18;9.60;99.90
42489;DHT22;28118;52.388;9.452;2022-12-29T07:27:45;9.70;99.90
42489;DHT22;28118;52.388;9.452;2022-12-29T07:30:12;9.80;99.90
42489;DHT22;28118;52.388;9.452;2022-12-29T07:32:39;9.70;99.90
42489;DHT22;28118;52.388;9.452;2022-12-29T07:35:05;9.60;99.90
42489;DHT22;28118;52.388;9.452;2022-12-29T07:37:33;9.50;99.90
42489;DHT22;28118;52.388;9.452;2022-12-29T07:40:01;9.40;99.90
42489;DHT22;28118;52.388;9.452;2022-12-29T07:42:30;9.30;99.90
42489;DHT22;28118;52.388;9.452;2022-12-29T07:44:57;9.30;99.90
42489;DHT22;28118;52.388;9.452;2022-12-29T07:47:23;9.20;99.90
42489;DHT22;28118;52.388;9.452;2022-12-29T07:49:50;9.30;99.90
42489;DHT22;28118;52.388;9.452;2022-12-29T07:52:17;9.20;99.90
42489;DHT22;28118;52.388;9.452;2022-12-29T07:54:43;9.20;99.90
42489;DHT22;28118;52.388;9.452;2022-12-29T07:57:10;9.20;99.90
42489;DHT22;28118;52.388;9.452;2022-12-29T07:59:36;9.10;99.90
42489;DHT22;28118;52.388;9.452;2022-12-29T08:02:03;9.10;99.90
42489;DHT22;28118;52.388;9.452;2022-12-29T08:04:30;9.20;99.90
42489;DHT22;28118;52.388;9.452;2022-12-29T08:06:57;9.20;99.90
42489;DHT22;28118;52.388;9.452;2022-12-29T08:09:23;9.30;99.90
42489;DHT22;28118;52.388;9.452;2022-12-29T08:11:50;9.30;99.90
42489;DHT22;28118;52.388;9.452;2022-12-29T08:14:17;9.30;99.90
42489;DHT22;28118;52.388;9.452;2022-12-29T08:16:43;9.40;99.90
42489;DHT22;28118;52.388;9.452;2022-12-29T08:19:11;9.40;99.90
42489;DHT22;28118;52.388;9.452;2022-12-29T08:21:38;9.40;99.90
42489;DHT22;28118;52.388;9.452;2022-12-29T08:24:06;9.40;99.90
42489;DHT22;28118;52.388;9.452;2022-12-29T08:26:33;9.60;99.90
42489;DHT22;28118;52.388;9.452;2022-12-29T08:28:59;9.80;99.90
42489;DHT22;28118;52.388;9.452;2022-12-29T08:31:26;9.90;99.90
42489;DHT22;28118;52.388;9.452;2022-12-29T08:33:53;9.90;99.90
42489;DHT22;28118;52.388;9.452;2022-12-29T08:36:19;9.80;99.90
42489;DHT22;28118;52.388;9.452;2022-12-29T08:38:46;9.80;99.90
42489;DHT22;28118;52.388;9.452;2022-12-29T08:41:13;9.70;99.90
42489;DHT22;28118;52.388;9.452;2022-12-29T08:43:39;9.70;99.90
42489;DHT22;28118;52.388;9.452;2022-12-29T08:46:06;9.70;99.90
42489;DHT22;28118;52.388;9.452;2022-12-29T08:48:33;9.60;99.90
42489;DHT22;28118;52.388;9.452;2022-12-29T08:50:59;9.50;99.90
42489;DHT22;28118;52.388;9.452;2022-12-29T08:53:26;9.50;99.90
42489;DHT22;28118;52.388;9.452;2022-12-29T08:55:58;9.50;99.90
42489;DHT22;28118;52.388;9.452;2022-12-29T08:58:31;9.40;99.90
42489;DHT22;28118;52.388;9.452;2022-12-29T09:00:58;9.30;99.90
42489;DHT22;28118;52.388;9.452;2022-12-29T09:03:25;9.40;99.90
42489;DHT22;28118;52.388;9.452;2022-12-29T09:06:12;9.30;99.90
42489;DHT22;28118;52.388;9.452;2022-12-29T09:08:39;9.50;99.90
42489;DHT22;28118;52.388;9.452;2022-12-29T09:11:25;9.60;99.90
42489;DHT22;28118;52.388;9.452;2022-12-29T09:13:52;9.60;99.90
42489;DHT22;28118;52.388;9.452;2022-12-29T09:16:21;9.60;99.90
42489;DHT22;28118;52.388;9.452;2022-12-29T09:18:50;9.80;99.90
42489;DHT22;28118;52.388;9.452;2022-12-29T09:21:17;9.80;99.90
42489;DHT22;28118;52.388;9.452;2022-12-29T09:23:43;10.00;99.90
42489;DHT22;28118;52.388;9.452;2022-12-29T09:26:10;10.10;99.90
42489;DHT22;28118;52.388;9.452;2022-12-29T09:28:37;10.10;99.90
42489;DHT22;28118;52.388;9.452;2022-12-29T09:31:03;10.30;99.90
42489;DHT22;28118;52.388;9.452;2022-12-29T09:33:30;10.30;99.90
42489;DHT22;28118;52.388;9.452;2022-12-29T09:35:59;10.30;99.90
42489;DHT22;28118;52.388;9.452;2022-12-29T09:38:26;10.20;99.90
42489;DHT22;28118;52.388;9.452;2022-12-29T09:40:56;10.20;99.90
42489;DHT22;28118;52.388;9.452;2022-12-29T09:46:35;10.10;99.90
42489;DHT22;28118;52.388;9.452;2022-12-29T09:52:30;10.00;99.90
42489;DHT22;28118;52.388;9.452;2022-12-29T09:55:43;10.00;99.90
42489;DHT22;28118;52.388;9.452;2022-12-29T10:00:50;10.00;99.90
42489;DHT22;28118;52.388;9.452;2022-12-29T10:03:24;10.10;99.90
42489;DHT22;28118;52.388;9.452;2022-12-29T10:11:46;10.40;99.90
42489;DHT22;28118;52.388;9.452;2022-12-29T10:14:32;10.40;99.90
42489;DHT22;28118;52.388;9.452;2022-12-29T10:17:29;10.50;99.90
42489;DHT22;28118;52.388;9.452;2022-12-29T10:20:33;10.70;99.90
42489;DHT22;28118;52.388;9.452;2022-12-29T10:23:28;11.00;99.90
42489;DHT22;28118;52.388;9.452;2022-12-29T10:25:57;11.30;99.90
42489;DHT22;28118;52.388;9.452;2022-12-29T10:28:48;11.50;99.90
42489;DHT22;28118;52.388;9.452;2022-12-29T10:31:31;11.60;99.90
42489;DHT22;28118;52.388;9.452;2022-12-29T10:34:03;11.60;99.90
42489;DHT22;28118;52.388;9.452;2022-12-29T10:36:38;11.50;99.90
42489;DHT22;28118;52.388;9.452;2022-12-29T10:39:40;11.40;99.90
42489;DHT22;28118;52.388;9.452;2022-12-29T10:42:25;11.40;99.90
42489;DHT22;28118;52.388;9.452;2022-12-29T10:44:53;11.30;99.90
42489;DHT22;28118;52.388;9.452;2022-12-29T10:47:23;11.30;99.90
42489;DHT22;28118;52.388;9.452;2022-12-29T10:49:51;11.40;99.90
42489;DHT22;28118;52.388;9.452;2022-12-29T10:52:19;11.30;99.90
42489;DHT22;28118;52.388;9.452;2022-12-29T10:55:08;11.40;99.90
42489;DHT22;28118;52.388;9.452;2022-12-29T10:57:41;11.40;99.90
42489;DHT22;28118;52.388;9.452;2022-12-29T11:00:16;11.30;99.90
42489;DHT22;28118;52.388;9.452;2022-12-29T11:05:56;11.10;99.90
42489;DHT22;28118;52.388;9.452;2022-12-29T11:08:33;11.00;99.90
42489;DHT22;28118;52.388;9.452;2022-12-29T11:11:08;11.10;99.90
42489;DHT22;28118;52.388;9.452;2022-12-29T11:13:47;11.10;99.90
42489;DHT22;28118;52.388;9.452;2022-12-29T11:16:14;11.20;99.90
42489;DHT22;28118;52.388;9.452;2022-12-29T11:18:53;11.30;99.90
42489;DHT22;28118;52.388;9.452;2022-12-29T11:21:37;11.30;99.90
42489;DHT22;28118;52.388;9.452;2022-12-29T11:24:22;11.30;99.90
42489;DHT22;28118;52.388;9.452;2022-12-29T11:26:50;11.40;99.90
42489;DHT22;28118;52.388;9.452;2022-12-29T11:29:36;11.40;99.90
42489;DHT22;28118;52.388;9.452;2022-12-29T11:32:20;11.50;99.90
42489;DHT22;28118;52.388;9.452;2022-12-29T11:34:54;11.50;99.90
42489;DHT22;28118;52.388;9.452;2022-12-29T11:37:36;11.60;99.90
42489;DHT22;28118;52.388;9.452;2022-12-29T11:40:15;11.70;99.90
42489;DHT22;28118;52.388;9.452;2022-12-29T11:47:47;12.00;99.90
42489;DHT22;28118;52.388;9.452;2022-12-29T11:50:22;12.20;99.90
42489;DHT22;28118;52.388;9.452;2022-12-29T11:52:56;12.10;99.90
42489;DHT22;28118;52.388;9.452;2022-12-29T11:55:25;11.90;99.90
42489;DHT22;28118;52.388;9.452;2022-12-29T11:57:55;11.90;99.90
42489;DHT22;28118;52.388;9.452;2022-12-29T12:00:24;11.70;99.90
42489;DHT22;28118;52.388;9.452;2022-12-29T12:03:15;11.80;99.90
42489;DHT22;28118;52.388;9.452;2022-12-29T12:06:00;11.70;99.90
42489;DHT22;28118;52.388;9.452;2022-12-29T12:08:53;11.70;99.90
42489;DHT22;28118;52.388;9.452;2022-12-29T12:11:34;11.70;99.90
42489;DHT22;28118;52.388;9.452;2022-12-29T12:14:27;11.70;99.90
42489;DHT22;28118;52.388;9.452;2022-12-29T12:16:59;11.70;99.90
42489;DHT22;28118;52.388;9.452;2022-12-29T12:22:39;11.80;99.90
42489;DHT22;28118;52.388;9.452;2022-12-29T12:25:23;11.80;99.90
42489;DHT22;28118;52.388;9.452;2022-12-29T12:28:02;11.80;99.90
42489;DHT22;28118;52.388;9.452;2022-12-29T12:30:40;11.70;99.90
42489;DHT22;28118;52.388;9.452;2022-12-29T12:37:06;11.50;99.90
42489;DHT22;28118;52.388;9.452;2022-12-29T12:39:26;11.40;99.90
42489;DHT22;28118;52.388;9.452;2022-12-29T12:45:08;11.30;99.90
42489;DHT22;28118;52.388;9.452;2022-12-29T12:58:55;11.30;99.90
42489;DHT22;28118;52.388;9.452;2022-12-29T13:07:17;11.30;99.90
42489;DHT22;28118;52.388;9.452;2022-12-29T13:09:55;11.30;99.90
42489;DHT22;28118;52.388;9.452;2022-12-29T13:15:12;11.40;99.90
42489;DHT22;28118;52.388;9.452;2022-12-29T13:17:57;11.30;99.90
42489;DHT22;28118;52.388;9.452;2022-12-29T13:20:35;11.40;99.90
42489;DHT22;28118;52.388;9.452;2022-12-29T13:23:44;11.40;99.90
42489;DHT22;28118;52.388;9.452;2022-12-29T13:32:09;11.50;99.90
42489;DHT22;28118;52.388;9.452;2022-12-29T13:37:18;11.40;99.90
42489;DHT22;28118;52.388;9.452;2022-12-29T13:39:56;11.40;99.90
42489;DHT22;28118;52.388;9.452;2022-12-29T13:42:24;11.40;99.90
42489;DHT22;28118;52.388;9.452;2022-12-29T13:45:05;11.30;99.90
42489;DHT22;28118;52.388;9.452;2022-12-29T13:47:57;11.30;99.90
42489;DHT22;28118;52.388;9.452;2022-12-29T13:50:28;11.30;99.90
42489;DHT22;28118;52.388;9.452;2022-12-29T13:53:18;11.30;99.90
42489;DHT22;28118;52.388;9.452;2022-12-29T13:58:30;11.30;99.90
42489;DHT22;28118;52.388;9.452;2022-12-29T14:01:07;11.30;99.90
42489;DHT22;28118;52.388;9.452;2022-12-29T14:03:55;11.30;99.90
42489;DHT22;28118;52.388;9.452;2022-12-29T14:06:26;11.20;99.90
42489;DHT22;28118;52.388;9.452;2022-12-29T14:09:00;11.20;99.90
42489;DHT22;28118;52.388;9.452;2022-12-29T14:11:38;11.20;99.90
42489;DHT22;28118;52.388;9.452;2022-12-29T14:14:27;11.20;99.90
42489;DHT22;28118;52.388;9.452;2022-12-29T14:17:09;11.10;99.90
42489;DHT22;28118;52.388;9.452;2022-12-29T14:19:42;11.20;99.90
42489;DHT22;28118;52.388;9.452;2022-12-29T14:22:10;11.10;99.90
42489;DHT22;28118;52.388;9.452;2022-12-29T14:24:43;11.00;99.90
42489;DHT22;28118;52.388;9.452;2022-12-29T14:34:54;11.10;99.90
42489;DHT22;28118;52.388;9.452;2022-12-29T14:37:30;11.00;99.90
42489;DHT22;28118;52.388;9.452;2022-12-29T14:40:14;11.00;99.90
42489;DHT22;28118;52.388;9.452;2022-12-29T14:42:47;11.00;99.90
42489;DHT22;28118;52.388;9.452;2022-12-29T14:47:43;10.90;99.90
42489;DHT22;28118;52.388;9.452;2022-12-29T14:52:47;10.90;99.90
42489;DHT22;28118;52.388;9.452;2022-12-29T14:57:44;10.80;99.90
42489;DHT22;28118;52.388;9.452;2022-12-29T15:02:47;10.90;99.90
42489;DHT22;28118;52.388;9.452;2022-12-29T15:05:29;10.90;99.90
42489;DHT22;28118;52.388;9.452;2022-12-29T15:07:57;10.90;99.90
42489;DHT22;28118;52.388;9.452;2022-12-29T15:10:25;10.90;99.90
42489;DHT22;28118;52.388;9.452;2022-12-29T15:13:00;10.80;99.90
42489;DHT22;28118;52.388;9.452;2022-12-29T15:15:28;10.70;99.90
42489;DHT22;28118;52.388;9.452;2022-12-29T15:17:56;10.50;99.90
42489;DHT22;28118;52.388;9.452;2022-12-29T15:20:30;10.40;99.90
42489;DHT22;28118;52.388;9.452;2022-12-29T15:23:02;10.40;99.90
42489;DHT22;28118;52.388;9.452;2022-12-29T15:25:30;10.50;99.90
42489;DHT22;28118;52.388;9.452;2022-12-29T15:28:04;10.40;99.90
42489;DHT22;28118;52.388;9.452;2022-12-29T15:30:31;10.40;99.90
42489;DHT22;28118;52.388;9.452;2022-12-29T15:32:58;10.30;99.90
42489;DHT22;28118;52.388;9.452;2022-12-29T15:35:37;10.20;99.90
42489;DHT22;28118;52.388;9.452;2022-12-29T15:38:14;10.20;99.90
42489;DHT22;28118;52.388;9.452;2022-12-29T15:40:46;10.20;99.90
42489;DHT22;28118;52.388;9.452;2022-12-29T15:43:38;10.20;99.90
42489;DHT22;28118;52.388;9.452;2022-12-29T15:46:13;10.10;99.90
42489;DHT22;28118;52.388;9.452;2022-12-29T15:48:40;10.20;99.90
42489;DHT22;28118;52.388;9.452;2022-12-29T15:51:20;10.20;99.90
42489;DHT22;28118;52.388;9.452;2022-12-29T15:53:48;10.30;99.90
42489;DHT22;28118;52.388;9.452;2022-12-29T15:56:16;10.20;99.90
42489;DHT22;28118;52.388;9.452;2022-12-29T15:58:46;10.20;99.90
42489;DHT22;28118;52.388;9.452;2022-12-29T16:03:54;10.00;99.90
42489;DHT22;28118;52.388;9.452;2022-12-29T16:08:57;10.00;99.90
42489;DHT22;28118;52.388;9.452;2022-12-29T16:11:27;10.10;99.90
42489;DHT22;28118;52.388;9.452;2022-12-29T16:13:56;10.10;99.90
42489;DHT22;28118;52.388;9.452;2022-12-29T16:16:28;10.10;99.90
42489;DHT22;28118;52.388;9.452;2022-12-29T16:18:56;10.20;99.90
42489;DHT22;28118;52.388;9.452;2022-12-29T16:21:33;10.10;99.90
42489;DHT22;28118;52.388;9.452;2022-12-29T16:24:06;10.10;99.90
42489;DHT22;28118;52.388;9.452;2022-12-29T16:26:36;10.10;99.90
42489;DHT22;28118;52.388;9.452;2022-12-29T16:29:07;10.10;99.90
42489;DHT22;28118;52.388;9.452;2022-12-29T16:31:36;10.10;99.90
42489;DHT22;28118;52.388;9.452;2022-12-29T16:34:26;10.10;99.90
42489;DHT22;28118;52.388;9.452;2022-12-29T16:36:57;10.00;99.90
42489;DHT22;28118;52.388;9.452;2022-12-29T16:39:31;10.00;99.90
42489;DHT22;28118;52.388;9.452;2022-12-29T16:41:58;10.00;99.90
42489;DHT22;28118;52.388;9.452;2022-12-29T16:44:30;9.90;99.90
42489;DHT22;28118;52.388;9.452;2022-12-29T16:49:40;9.80;99.90
42489;DHT22;28118;52.388;9.452;2022-12-29T16:52:20;9.80;99.90
42489;DHT22;28118;52.388;9.452;2022-12-29T16:54:51;9.80;99.90
42489;DHT22;28118;52.388;9.452;2022-12-29T16:57:25;9.80;99.90
42489;DHT22;28118;52.388;9.452;2022-12-29T16:59:55;9.80;99.90
42489;DHT22;28118;52.388;9.452;2022-12-29T17:02:24;9.80;99.90
42489;DHT22;28118;52.388;9.452;2022-12-29T17:04:52;9.80;99.90
42489;DHT22;28118;52.388;9.452;2022-12-29T17:07:22;9.80;99.90
42489;DHT22;28118;52.388;9.452;2022-12-29T17:09:49;9.80;99.90
42489;DHT22;28118;52.388;9.452;2022-12-29T17:12:25;9.90;99.90
42489;DHT22;28118;52.388;9.452;2022-12-29T17:14:55;9.90;99.90
42489;DHT22;28118;52.388;9.452;2022-12-29T17:17:35;9.90;99.90
42489;DHT22;28118;52.388;9.452;2022-12-29T17:20:20;10.00;99.90
42489;DHT22;28118;52.388;9.452;2022-12-29T17:22:48;10.00;99.90
42489;DHT22;28118;52.388;9.452;2022-12-29T17:25:19;10.00;99.90
42489;DHT22;28118;52.388;9.452;2022-12-29T17:28:04;10.00;99.90
42489;DHT22;28118;52.388;9.452;2022-12-29T17:30:33;10.00;99.90
42489;DHT22;28118;52.388;9.452;2022-12-29T17:33:04;10.00;99.90
42489;DHT22;28118;52.388;9.452;2022-12-29T17:35:31;10.00;99.90
42489;DHT22;28118;52.388;9.452;2022-12-29T17:37:58;10.00;99.90
42489;DHT22;28118;52.388;9.452;2022-12-29T17:40:29;9.90;99.90
42489;DHT22;28118;52.388;9.452;2022-12-29T17:42:58;10.00;99.90
42489;DHT22;28118;52.388;9.452;2022-12-29T17:45:27;10.00;99.90
42489;DHT22;28118;52.388;9.452;2022-12-29T17:47:54;10.00;99.90
42489;DHT22;28118;52.388;9.452;2022-12-29T17:50:25;10.00;99.90
42489;DHT22;28118;52.388;9.452;2022-12-29T17:52:53;10.00;99.90
42489;DHT22;28118;52.388;9.452;2022-12-29T17:55:27;10.00;99.90
42489;DHT22;28118;52.388;9.452;2022-12-29T17:58:21;9.70;99.90
42489;DHT22;28118;52.388;9.452;2022-12-29T18:00:50;9.50;99.90